sensor_id;sensor_type;location;lat;lon;timestamp;temperature;humidity
38582;DHT22;24349;53.720;10.014;2023-07-09T00:01:20;18.90;7.30
38582;DHT22;24349;53.720;10.014;2023-07-09T00:03:47;18.90;10.80
38582;DHT22;24349;53.720;10.014;2023-07-09T00:06:19;18.90;6.40
38582;DHT22;24349;53.720;10.014;2023-07-09T00:08:45;18.90;8.00
38582;DHT22;24349;53.720;10.014;2023-07-09T00:11:14;18.80;7.50
38582;DHT22;24349;53.720;10.014;2023-07-09T00:13:40;18.80;14.50
38582;DHT22;24349;53.720;10.014;2023-07-09T00:16:13;18.80;7.80
38582;DHT22;24349;53.720;10.014;2023-07-09T00:18:39;18.80;4.20
38582;DHT22;24349;53.720;10.014;2023-07-09T00:21:05;18.80;1.00
38582;DHT22;24349;53.720;10.014;2023-07-09T00:23:31;18.70;4.40
38582;DHT22;24349;53.720;10.014;2023-07-09T00:25:57;18.70;1.90
38582;DHT22;24349;53.720;10.014;2023-07-09T00:28:22;18.70;4.00
38582;DHT22;24349;53.720;10.014;2023-07-09T00:30:48;18.70;1.00
38582;DHT22;24349;53.720;10.014;2023-07-09T00:33:16;18.70;1.00
38582;DHT22;24349;53.720;10.014;2023-07-09T00:35:45;18.70;1.30
38582;DHT22;24349;53.720;10.014;2023-07-09T00:38:21;18.70;1.00
38582;DHT22;24349;53.720;10.014;2023-07-09T00:40:56;18.70;1.00
38582;DHT22;24349;53.720;10.014;2023-07-09T00:43:24;18.60;1.00
38582;DHT22;24349;53.720;10.014;2023-07-09T00:48:43;18.50;2.70
38582;DHT22;24349;53.720;10.014;2023-07-09T00:51:12;18.50;1.10
38582;DHT22;24349;53.720;10.014;2023-07-09T00:53:38;18.50;1.00
38582;DHT22;24349;53.720;10.014;2023-07-09T00:56:12;18.50;1.00
38582;DHT22;24349;53.720;10.014;2023-07-09T00:58:41;18.50;1.00
38582;DHT22;24349;53.720;10.014;2023-07-09T01:01:09;18.50;1.00
38582;DHT22;24349;53.720;10.014;2023-07-09T01:03:44;18.50;1.00
38582;DHT22;24349;53.720;10.014;2023-07-09T01:06:10;18.40;1.00
38582;DHT22;24349;53.720;10.014;2023-07-09T01:08:39;18.40;1.00
38582;DHT22;24349;53.720;10.014;2023-07-09T01:11:19;18.30;1.00
38582;DHT22;24349;53.720;10.014;2023-07-09T01:13:52;18.40;1.00
38582;DHT22;24349;53.720;10.014;2023-07-09T01:16:19;18.30;1.00
38582;DHT22;24349;53.720;10.014;2023-07-09T01:18:49;18.30;1.00
38582;DHT22;24349;53.720;10.014;2023-07-09T01:21:15;18.30;1.00
38582;DHT22;24349;53.720;10.014;2023-07-09T01:23:45;18.30;1.00
38582;DHT22;24349;53.720;10.014;2023-07-09T01:26:13;18.20;1.00
38582;DHT22;24349;53.720;10.014;2023-07-09T01:28:39;18.20;1.00
38582;DHT22;24349;53.720;10.014;2023-07-09T01:31:13;18.10;1.00
38582;DHT22;24349;53.720;10.014;2023-07-09T01:33:41;18.10;1.00
38582;DHT22;24349;53.720;10.014;2023-07-09T01:36:12;18.20;1.00
38582;DHT22;24349;53.720;10.014;2023-07-09T01:38:42;18.20;1.00
38582;DHT22;24349;53.720;10.014;2023-07-09T01:41:08;18.20;1.00
38582;DHT22;24349;53.720;10.014;2023-07-09T01:43:40;18.10;1.00
38582;DHT22;24349;53.720;10.014;2023-07-09T01:46:10;18.10;1.00
38582;DHT22;24349;53.720;10.014;2023-07-09T01:48:38;18.10;1.00
38582;DHT22;24349;53.720;10.014;2023-07-09T01:51:12;18.10;1.00
38582;DHT22;24349;53.720;10.014;2023-07-09T01:53:40;18.10;1.00
38582;DHT22;24349;53.720;10.014;2023-07-09T01:56:06;18.10;1.00
38582;DHT22;24349;53.720;10.014;2023-07-09T01:58:36;18.10;1.00
38582;DHT22;24349;53.720;10.014;2023-07-09T02:01:03;18.10;1.00
38582;DHT22;24349;53.720;10.014;2023-07-09T02:03:29;18.10;1.00
38582;DHT22;24349;53.720;10.014;2023-07-09T02:05:55;18.10;1.00
38582;DHT22;24349;53.720;10.014;2023-07-09T02:08:23;18.10;1.00
38582;DHT22;24349;53.720;10.014;2023-07-09T02:10:49;18.00;1.00
38582;DHT22;24349;53.720;10.014;2023-07-09T02:13:15;18.00;1.00
38582;DHT22;24349;53.720;10.014;2023-07-09T02:15:42;17.90;1.00
38582;DHT22;24349;53.720;10.014;2023-07-09T02:18:18;17.90;1.00
38582;DHT22;24349;53.720;10.014;2023-07-09T02:20:46;17.90;1.00
38582;DHT22;24349;53.720;10.014;2023-07-09T02:23:12;17.80;1.00
38582;DHT22;24349;53.720;10.014;2023-07-09T02:25:37;17.80;1.00
38582;DHT22;24349;53.720;10.014;2023-07-09T02:28:03;17.80;1.00
38582;DHT22;24349;53.720;10.014;2023-07-09T02:30:29;17.80;1.00
38582;DHT22;24349;53.720;10.014;2023-07-09T02:32:55;17.70;1.00
38582;DHT22;24349;53.720;10.014;2023-07-09T02:35:22;17.70;1.00
38582;DHT22;24349;53.720;10.014;2023-07-09T02:37:48;17.70;1.00
38582;DHT22;24349;53.720;10.014;2023-07-09T02:40:15;17.60;1.00
38582;DHT22;24349;53.720;10.014;2023-07-09T02:42:41;17.60;1.00
38582;DHT22;24349;53.720;10.014;2023-07-09T02:45:08;17.60;1.00
38582;DHT22;24349;53.720;10.014;2023-07-09T02:47:34;17.60;1.00
38582;DHT22;24349;53.720;10.014;2023-07-09T02:50:00;17.60;1.00
38582;DHT22;24349;53.720;10.014;2023-07-09T02:52:26;17.60;1.00
38582;DHT22;24349;53.720;10.014;2023-07-09T02:54:52;17.60;1.00
38582;DHT22;24349;53.720;10.014;2023-07-09T02:57:18;17.60;1.00
38582;DHT22;24349;53.720;10.014;2023-07-09T02:59:43;17.50;1.00
38582;DHT22;24349;53.720;10.014;2023-07-09T03:02:09;17.50;1.00
38582;DHT22;24349;53.720;10.014;2023-07-09T03:04:35;17.50;1.00
38582;DHT22;24349;53.720;10.014;2023-07-09T03:07:00;17.50;1.00
38582;DHT22;24349;53.720;10.014;2023-07-09T03:09:26;17.50;1.00
38582;DHT22;24349;53.720;10.014;2023-07-09T03:11:53;17.50;1.00
38582;DHT22;24349;53.720;10.014;2023-07-09T03:14:19;17.50;1.00
38582;DHT22;24349;53.720;10.014;2023-07-09T03:16:45;17.40;1.00
38582;DHT22;24349;53.720;10.014;2023-07-09T03:19:11;17.40;1.00
38582;DHT22;24349;53.720;10.014;2023-07-09T03:21:37;17.40;1.00
38582;DHT22;24349;53.720;10.014;2023-07-09T03:24:03;17.40;1.00
38582;DHT22;24349;53.720;10.014;2023-07-09T03:26:29;17.50;1.00
38582;DHT22;24349;53.720;10.014;2023-07-09T03:28:55;17.40;1.00
38582;DHT22;24349;53.720;10.014;2023-07-09T03:31:21;17.50;99.90
38582;DHT22;24349;53.720;10.014;2023-07-09T03:33:47;17.50;1.00
38582;DHT22;24349;53.720;10.014;2023-07-09T03:36:13;17.60;1.00
38582;DHT22;24349;53.720;10.014;2023-07-09T03:38:39;17.50;1.00
38582;DHT22;24349;53.720;10.014;2023-07-09T03:41:05;17.50;1.00
38582;DHT22;24349;53.720;10.014;2023-07-09T03:43:31;17.50;1.00
38582;DHT22;24349;53.720;10.014;2023-07-09T03:45:57;17.60;99.90
38582;DHT22;24349;53.720;10.014;2023-07-09T03:48:23;17.60;99.90
38582;DHT22;24349;53.720;10.014;2023-07-09T03:50:48;17.60;99.90
38582;DHT22;24349;53.720;10.014;2023-07-09T03:53:15;17.70;99.90
38582;DHT22;24349;53.720;10.014;2023-07-09T03:55:41;17.70;99.90
38582;DHT22;24349;53.720;10.014;2023-07-09T03:58:07;17.70;99.90
38582;DHT22;24349;53.720;10.014;2023-07-09T04:00:33;17.70;99.90
38582;DHT22;24349;53.720;10.014;2023-07-09T04:02:59;17.80;99.90
38582;DHT22;24349;53.720;10.014;2023-07-09T04:05:25;17.80;99.90
38582;DHT22;24349;53.720;10.014;2023-07-09T04:07:51;17.80;99.90
38582;DHT22;24349;53.720;10.014;2023-07-09T04:10:17;17.80;99.90
38582;DHT22;24349;53.720;10.014;2023-07-09T04:12:43;17.80;99.90
38582;DHT22;24349;53.720;10.014;2023-07-09T04:15:09;17.80;99.90
38582;DHT22;24349;53.720;10.014;2023-07-09T04:17:35;17.80;99.90
38582;DHT22;24349;53.720;10.014;2023-07-09T04:20:02;17.80;99.90
38582;DHT22;24349;53.720;10.014;2023-07-09T04:22:31;17.80;99.90
38582;DHT22;24349;53.720;10.014;2023-07-09T04:24:57;17.80;99.90
38582;DHT22;24349;53.720;10.014;2023-07-09T04:27:23;17.80;99.90
38582;DHT22;24349;53.720;10.014;2023-07-09T04:29:52;17.80;99.90
38582;DHT22;24349;53.720;10.014;2023-07-09T04:32:18;17.80;99.90
38582;DHT22;24349;53.720;10.014;2023-07-09T04:34:44;17.80;99.90
38582;DHT22;24349;53.720;10.014;2023-07-09T04:37:10;17.80;99.90
38582;DHT22;24349;53.720;10.014;2023-07-09T04:39:42;17.80;99.90
38582;DHT22;24349;53.720;10.014;2023-07-09T04:42:12;17.80;99.90
38582;DHT22;24349;53.720;10.014;2023-07-09T04:44:38;17.80;99.90
38582;DHT22;24349;53.720;10.014;2023-07-09T04:47:04;17.80;99.90
38582;DHT22;24349;53.720;10.014;2023-07-09T04:49:30;17.80;99.90
38582;DHT22;24349;53.720;10.014;2023-07-09T04:51:56;17.80;99.90
38582;DHT22;24349;53.720;10.014;2023-07-09T04:54:23;17.80;99.90
38582;DHT22;24349;53.720;10.014;2023-07-09T04:56:49;17.90;99.90
38582;DHT22;24349;53.720;10.014;2023-07-09T04:59:15;17.90;99.90
38582;DHT22;24349;53.720;10.014;2023-07-09T05:01:41;18.00;99.90
38582;DHT22;24349;53.720;10.014;2023-07-09T05:04:06;18.10;99.90
38582;DHT22;24349;53.720;10.014;2023-07-09T05:06:34;18.40;99.90
38582;DHT22;24349;53.720;10.014;2023-07-09T05:08:59;18.60;99.90
38582;DHT22;24349;53.720;10.014;2023-07-09T05:11:25;18.80;99.90
38582;DHT22;24349;53.720;10.014;2023-07-09T05:13:50;19.00;27.20
38582;DHT22;24349;53.720;10.014;2023-07-09T05:16:16;19.30;74.80
38582;DHT22;24349;53.720;10.014;2023-07-09T05:18:42;19.50;1.00
38582;DHT22;24349;53.720;10.014;2023-07-09T05:21:08;19.80;99.90
38582;DHT22;24349;53.720;10.014;2023-07-09T05:23:33;20.00;99.90
38582;DHT22;24349;53.720;10.014;2023-07-09T05:26:00;20.10;99.90
38582;DHT22;24349;53.720;10.014;2023-07-09T05:28:27;20.20;94.00
38582;DHT22;24349;53.720;10.014;2023-07-09T05:30:52;20.40;1.00
38582;DHT22;24349;53.720;10.014;2023-07-09T05:33:18;20.40;99.90
38582;DHT22;24349;53.720;10.014;2023-07-09T05:35:44;20.50;92.60
38582;DHT22;24349;53.720;10.014;2023-07-09T05:38:10;20.60;99.90
38582;DHT22;24349;53.720;10.014;2023-07-09T05:40:36;20.70;99.90
38582;DHT22;24349;53.720;10.014;2023-07-09T05:43:01;20.80;1.00
38582;DHT22;24349;53.720;10.014;2023-07-09T05:45:27;20.90;1.00
38582;DHT22;24349;53.720;10.014;2023-07-09T05:47:53;20.90;99.90
38582;DHT22;24349;53.720;10.014;2023-07-09T05:50:18;21.20;99.90
38582;DHT22;24349;53.720;10.014;2023-07-09T05:52:44;21.50;99.90
38582;DHT22;24349;53.720;10.014;2023-07-09T05:55:09;21.60;1.00
38582;DHT22;24349;53.720;10.014;2023-07-09T05:57:35;21.80;99.90
38582;DHT22;24349;53.720;10.014;2023-07-09T06:00:01;22.00;99.90
38582;DHT22;24349;53.720;10.014;2023-07-09T06:02:26;22.30;1.00
38582;DHT22;24349;53.720;10.014;2023-07-09T06:04:52;22.50;99.90
38582;DHT22;24349;53.720;10.014;2023-07-09T06:07:18;22.60;99.90
38582;DHT22;24349;53.720;10.014;2023-07-09T06:09:44;22.60;1.00
38582;DHT22;24349;53.720;10.014;2023-07-09T06:12:11;22.90;99.90
38582;DHT22;24349;53.720;10.014;2023-07-09T06:14:37;23.20;99.90
38582;DHT22;24349;53.720;10.014;2023-07-09T06:17:03;23.50;84.70
38582;DHT22;24349;53.720;10.014;2023-07-09T06:19:29;23.70;99.90
38582;DHT22;24349;53.720;10.014;2023-07-09T06:21:54;24.00;99.90
38582;DHT22;24349;53.720;10.014;2023-07-09T06:24:21;23.90;57.90
38582;DHT22;24349;53.720;10.014;2023-07-09T06:26:47;23.80;99.90
38582;DHT22;24349;53.720;10.014;2023-07-09T06:29:13;24.10;99.90
38582;DHT22;24349;53.720;10.014;2023-07-09T06:31:39;24.30;30.50
38582;DHT22;24349;53.720;10.014;2023-07-09T06:34:06;24.30;1.00
38582;DHT22;24349;53.720;10.014;2023-07-09T06:36:32;24.30;1.00
38582;DHT22;24349;53.720;10.014;2023-07-09T06:38:58;24.30;1.00
38582;DHT22;24349;53.720;10.014;2023-07-09T06:41:24;24.50;1.00
38582;DHT22;24349;53.720;10.014;2023-07-09T06:43:50;24.50;99.90
38582;DHT22;24349;53.720;10.014;2023-07-09T06:46:17;24.70;1.00
38582;DHT22;24349;53.720;10.014;2023-07-09T06:48:44;25.20;99.90
38582;DHT22;24349;53.720;10.014;2023-07-09T06:51:09;25.40;99.90
38582;DHT22;24349;53.720;10.014;2023-07-09T06:53:35;25.60;99.90
38582;DHT22;24349;53.720;10.014;2023-07-09T06:56:02;25.90;99.90
38582;DHT22;24349;53.720;10.014;2023-07-09T06:58:30;25.50;49.20
38582;DHT22;24349;53.720;10.014;2023-07-09T07:00:57;26.00;99.90
38582;DHT22;24349;53.720;10.014;2023-07-09T07:03:23;26.40;62.50
38582;DHT22;24349;53.720;10.014;2023-07-09T07:05:51;26.40;19.50
38582;DHT22;24349;53.720;10.014;2023-07-09T07:08:20;26.30;1.00
38582;DHT22;24349;53.720;10.014;2023-07-09T07:10:50;26.20;1.00
38582;DHT22;24349;53.720;10.014;2023-07-09T07:13:21;26.70;1.00
38582;DHT22;24349;53.720;10.014;2023-07-09T07:15:48;27.20;1.00
38582;DHT22;24349;53.720;10.014;2023-07-09T07:18:16;27.40;1.00
38582;DHT22;24349;53.720;10.014;2023-07-09T07:20:42;27.60;99.90
38582;DHT22;24349;53.720;10.014;2023-07-09T07:23:08;27.10;99.90
38582;DHT22;24349;53.720;10.014;2023-07-09T07:25:34;27.30;99.90
38582;DHT22;24349;53.720;10.014;2023-07-09T07:27:59;27.40;99.90
38582;DHT22;24349;53.720;10.014;2023-07-09T07:30:25;27.50;99.90
38582;DHT22;24349;53.720;10.014;2023-07-09T07:32:51;27.70;99.90
38582;DHT22;24349;53.720;10.014;2023-07-09T07:35:16;28.10;99.90
38582;DHT22;24349;53.720;10.014;2023-07-09T07:37:43;28.30;99.90
38582;DHT22;24349;53.720;10.014;2023-07-09T07:40:09;28.10;99.90
38582;DHT22;24349;53.720;10.014;2023-07-09T07:42:36;27.60;99.90
38582;DHT22;24349;53.720;10.014;2023-07-09T07:45:02;28.20;99.90
38582;DHT22;24349;53.720;10.014;2023-07-09T07:47:28;28.40;99.90
38582;DHT22;24349;53.720;10.014;2023-07-09T07:49:54;28.70;99.90
38582;DHT22;24349;53.720;10.014;2023-07-09T07:52:20;29.20;99.90
38582;DHT22;24349;53.720;10.014;2023-07-09T07:54:46;28.80;99.90
38582;DHT22;24349;53.720;10.014;2023-07-09T07:57:12;29.10;99.90
38582;DHT22;24349;53.720;10.014;2023-07-09T07:59:38;29.60;99.90
38582;DHT22;24349;53.720;10.014;2023-07-09T08:02:06;29.70;99.90
38582;DHT22;24349;53.720;10.014;2023-07-09T08:04:32;30.00;99.90
38582;DHT22;24349;53.720;10.014;2023-07-09T08:06:58;29.20;99.90
38582;DHT22;24349;53.720;10.014;2023-07-09T08:09:24;29.10;99.90
38582;DHT22;24349;53.720;10.014;2023-07-09T08:11:50;29.10;99.90
38582;DHT22;24349;53.720;10.014;2023-07-09T08:14:16;29.10;99.90
38582;DHT22;24349;53.720;10.014;2023-07-09T08:16:42;29.20;99.90
38582;DHT22;24349;53.720;10.014;2023-07-09T08:19:08;29.30;99.90
38582;DHT22;24349;53.720;10.014;2023-07-09T08:21:33;29.30;99.90
38582;DHT22;24349;53.720;10.014;2023-07-09T08:23:59;29.10;99.90
38582;DHT22;24349;53.720;10.014;2023-07-09T08:26:25;28.60;99.90
38582;DHT22;24349;53.720;10.014;2023-07-09T08:28:51;28.60;99.90
38582;DHT22;24349;53.720;10.014;2023-07-09T08:31:17;28.50;99.90
38582;DHT22;24349;53.720;10.014;2023-07-09T08:33:43;28.50;99.90
38582;DHT22;24349;53.720;10.014;2023-07-09T08:36:08;28.30;99.90
38582;DHT22;24349;53.720;10.014;2023-07-09T08:38:34;28.20;99.90
38582;DHT22;24349;53.720;10.014;2023-07-09T08:41:06;28.60;99.90
38582;DHT22;24349;53.720;10.014;2023-07-09T08:44:00;29.00;99.90
38582;DHT22;24349;53.720;10.014;2023-07-09T08:46:33;28.90;99.90
38582;DHT22;24349;53.720;10.014;2023-07-09T08:49:03;29.10;99.90
38582;DHT22;24349;53.720;10.014;2023-07-09T08:51:39;29.20;99.90
38582;DHT22;24349;53.720;10.014;2023-07-09T08:54:25;29.30;99.90
38582;DHT22;24349;53.720;10.014;2023-07-09T08:56:51;29.30;99.90
38582;DHT22;24349;53.720;10.014;2023-07-09T08:59:19;29.40;99.90
38582;DHT22;24349;53.720;10.014;2023-07-09T09:01:52;29.50;99.90
38582;DHT22;24349;53.720;10.014;2023-07-09T09:04:28;29.60;99.90
38582;DHT22;24349;53.720;10.014;2023-07-09T09:07:31;29.90;99.90
38582;DHT22;24349;53.720;10.014;2023-07-09T09:09:58;29.80;99.90
38582;DHT22;24349;53.720;10.014;2023-07-09T09:12:38;29.30;99.90
38582;DHT22;24349;53.720;10.014;2023-07-09T09:15:20;29.20;99.90
38582;DHT22;24349;53.720;10.014;2023-07-09T09:17:51;29.40;99.90
38582;DHT22;24349;53.720;10.014;2023-07-09T09:20:19;29.90;99.90
38582;DHT22;24349;53.720;10.014;2023-07-09T09:22:57;30.10;99.90
38582;DHT22;24349;53.720;10.014;2023-07-09T09:25:28;30.20;99.90
38582;DHT22;24349;53.720;10.014;2023-07-09T09:27:55;30.10;99.90
38582;DHT22;24349;53.720;10.014;2023-07-09T09:30:23;30.00;99.90
38582;DHT22;24349;53.720;10.014;2023-07-09T09:33:06;30.30;99.90
38582;DHT22;24349;53.720;10.014;2023-07-09T09:35:34;30.30;99.90
38582;DHT22;24349;53.720;10.014;2023-07-09T09:38:01;30.50;99.90
38582;DHT22;24349;53.720;10.014;2023-07-09T09:40:32;30.70;99.90
38582;DHT22;24349;53.720;10.014;2023-07-09T09:42:58;30.50;99.90
38582;DHT22;24349;53.720;10.014;2023-07-09T09:45:34;30.50;99.90
38582;DHT22;24349;53.720;10.014;2023-07-09T09:48:01;30.80;99.90
38582;DHT22;24349;53.720;10.014;2023-07-09T09:50:34;30.30;99.90
38582;DHT22;24349;53.720;10.014;2023-07-09T09:53:00;30.20;99.90
38582;DHT22;24349;53.720;10.014;2023-07-09T09:55:31;30.30;99.90
38582;DHT22;24349;53.720;10.014;2023-07-09T09:57:57;30.40;99.90
38582;DHT22;24349;53.720;10.014;2023-07-09T10:00:26;30.30;99.90
38582;DHT22;24349;53.720;10.014;2023-07-09T10:03:03;30.50;99.90
38582;DHT22;24349;53.720;10.014;2023-07-09T10:05:41;30.80;99.90
38582;DHT22;24349;53.720;10.014;2023-07-09T10:08:15;31.20;99.90
38582;DHT22;24349;53.720;10.014;2023-07-09T10:10:44;31.30;99.90
38582;DHT22;24349;53.720;10.014;2023-07-09T10:18:49;30.90;99.90
38582;DHT22;24349;53.720;10.014;2023-07-09T10:21:42;31.20;99.90
38582;DHT22;24349;53.720;10.014;2023-07-09T10:26:53;32.30;99.90
38582;DHT22;24349;53.720;10.014;2023-07-09T10:34:34;32.40;99.90
38582;DHT22;24349;53.720;10.014;2023-07-09T10:39:46;31.90;99.90
38582;DHT22;24349;53.720;10.014;2023-07-09T10:42:35;31.50;99.90
38582;DHT22;24349;53.720;10.014;2023-07-09T10:45:10;32.00;99.90
38582;DHT22;24349;53.720;10.014;2023-07-09T10:47:45;32.20;99.90
38582;DHT22;24349;53.720;10.014;2023-07-09T10:50:21;32.30;99.90
38582;DHT22;24349;53.720;10.014;2023-07-09T10:52:50;32.50;99.90
38582;DHT22;24349;53.720;10.014;2023-07-09T10:55:26;32.20;99.90
38582;DHT22;24349;53.720;10.014;2023-07-09T10:58:19;31.90;99.90
38582;DHT22;24349;53.720;10.014;2023-07-09T11:00:48;32.20;99.90
38582;DHT22;24349;53.720;10.014;2023-07-09T11:05:56;32.00;99.90
38582;DHT22;24349;53.720;10.014;2023-07-09T11:08:28;32.30;99.90
38582;DHT22;24349;53.720;10.014;2023-07-09T11:10:59;32.80;99.90
38582;DHT22;24349;53.720;10.014;2023-07-09T11:13:33;33.00;99.90
38582;DHT22;24349;53.720;10.014;2023-07-09T11:16:03;33.20;99.90
38582;DHT22;24349;53.720;10.014;2023-07-09T11:18:34;33.10;99.90
38582;DHT22;24349;53.720;10.014;2023-07-09T11:21:08;33.20;99.90
38582;DHT22;24349;53.720;10.014;2023-07-09T11:26:22;33.80;99.90
38582;DHT22;24349;53.720;10.014;2023-07-09T11:28:55;33.20;99.90
38582;DHT22;24349;53.720;10.014;2023-07-09T11:31:42;33.20;99.90
38582;DHT22;24349;53.720;10.014;2023-07-09T11:36:58;33.20;99.40
38582;DHT22;24349;53.720;10.014;2023-07-09T11:42:02;33.20;97.40
38582;DHT22;24349;53.720;10.014;2023-07-09T11:44:33;33.20;95.40
38582;DHT22;24349;53.720;10.014;2023-07-09T11:47:22;33.40;99.10
38582;DHT22;24349;53.720;10.014;2023-07-09T11:49:59;33.70;96.90
38582;DHT22;24349;53.720;10.014;2023-07-09T11:52:30;33.90;96.20
38582;DHT22;24349;53.720;10.014;2023-07-09T11:55:02;33.70;99.90
38582;DHT22;24349;53.720;10.014;2023-07-09T11:57:28;33.80;91.30
38582;DHT22;24349;53.720;10.014;2023-07-09T11:59:59;33.90;92.20
38582;DHT22;24349;53.720;10.014;2023-07-09T12:02:31;33.80;78.70
38582;DHT22;24349;53.720;10.014;2023-07-09T12:04:58;33.10;76.80
38582;DHT22;24349;53.720;10.014;2023-07-09T12:07:25;32.80;73.10
38582;DHT22;24349;53.720;10.014;2023-07-09T12:09:51;32.80;73.10
38582;DHT22;24349;53.720;10.014;2023-07-09T12:12:23;32.90;75.10
38582;DHT22;24349;53.720;10.014;2023-07-09T12:14:49;33.40;75.20
38582;DHT22;24349;53.720;10.014;2023-07-09T12:17:15;33.30;68.70
38582;DHT22;24349;53.720;10.014;2023-07-09T12:19:41;33.00;67.70
38582;DHT22;24349;53.720;10.014;2023-07-09T12:22:16;33.00;69.70
38582;DHT22;24349;53.720;10.014;2023-07-09T12:24:45;33.30;68.60
38582;DHT22;24349;53.720;10.014;2023-07-09T12:27:19;33.20;65.90
38582;DHT22;24349;53.720;10.014;2023-07-09T12:29:45;33.40;66.90
38582;DHT22;24349;53.720;10.014;2023-07-09T12:32:13;33.60;67.00
38582;DHT22;24349;53.720;10.014;2023-07-09T12:34:39;33.40;62.20
38582;DHT22;24349;53.720;10.014;2023-07-09T12:37:07;34.00;63.80
38582;DHT22;24349;53.720;10.014;2023-07-09T12:39:34;33.90;62.50
38582;DHT22;24349;53.720;10.014;2023-07-09T12:42:01;33.50;58.50
38582;DHT22;24349;53.720;10.014;2023-07-09T12:44:30;33.20;59.50
38582;DHT22;24349;53.720;10.014;2023-07-09T12:46:57;33.10;57.70
38582;DHT22;24349;53.720;10.014;2023-07-09T12:49:28;32.80;54.90
38582;DHT22;24349;53.720;10.014;2023-07-09T12:51:55;32.90;60.30
38582;DHT22;24349;53.720;10.014;2023-07-09T12:54:21;33.00;63.80
38582;DHT22;24349;53.720;10.014;2023-07-09T12:56:53;33.10;58.50
38582;DHT22;24349;53.720;10.014;2023-07-09T12:59:25;33.10;59.00
38582;DHT22;24349;53.720;10.014;2023-07-09T13:01:56;33.20;57.90
38582;DHT22;24349;53.720;10.014;2023-07-09T13:04:33;33.50;59.30
38582;DHT22;24349;53.720;10.014;2023-07-09T13:07:01;33.60;56.80
38582;DHT22;24349;53.720;10.014;2023-07-09T13:09:27;33.50;57.80
38582;DHT22;24349;53.720;10.014;2023-07-09T13:11:54;33.50;54.60
38582;DHT22;24349;53.720;10.014;2023-07-09T13:14:23;33.70;59.80
38582;DHT22;24349;53.720;10.014;2023-07-09T13:16:49;34.30;59.40
38582;DHT22;24349;53.720;10.014;2023-07-09T13:19:16;34.30;57.70
38582;DHT22;24349;53.720;10.014;2023-07-09T13:21:41;34.10;42.20
38582;DHT22;24349;53.720;10.014;2023-07-09T13:24:23;34.20;37.70
38582;DHT22;24349;53.720;10.014;2023-07-09T13:26:50;34.30;41.10
38582;DHT22;24349;53.720;10.014;2023-07-09T13:29:17;34.30;32.50
38582;DHT22;24349;53.720;10.014;2023-07-09T13:31:49;34.50;31.20
38582;DHT22;24349;53.720;10.014;2023-07-09T13:34:20;34.30;26.10
38582;DHT22;24349;53.720;10.014;2023-07-09T13:36:47;34.00;28.50
38582;DHT22;24349;53.720;10.014;2023-07-09T13:39:13;33.80;29.20
38582;DHT22;24349;53.720;10.014;2023-07-09T13:41:44;33.60;25.90
38582;DHT22;24349;53.720;10.014;2023-07-09T13:44:25;33.60;27.10
38582;DHT22;24349;53.720;10.014;2023-07-09T13:46:51;33.80;26.20
38582;DHT22;24349;53.720;10.014;2023-07-09T13:49:19;34.00;25.10
38582;DHT22;24349;53.720;10.014;2023-07-09T13:51:50;34.10;26.70
38582;DHT22;24349;53.720;10.014;2023-07-09T13:54:24;33.80;25.80
38582;DHT22;24349;53.720;10.014;2023-07-09T13:56:51;33.70;24.20
38582;DHT22;24349;53.720;10.014;2023-07-09T13:59:20;33.70;23.10
38582;DHT22;24349;53.720;10.014;2023-07-09T14:01:47;33.80;22.70
38582;DHT22;24349;53.720;10.014;2023-07-09T14:04:15;33.90;25.00
38582;DHT22;24349;53.720;10.014;2023-07-09T14:06:43;33.80;22.10
38582;DHT22;24349;53.720;10.014;2023-07-09T14:09:10;33.90;21.10
38582;DHT22;24349;53.720;10.014;2023-07-09T14:11:49;33.80;22.20
38582;DHT22;24349;53.720;10.014;2023-07-09T14:14:21;33.80;23.00
38582;DHT22;24349;53.720;10.014;2023-07-09T14:16:48;33.60;21.20
38582;DHT22;24349;53.720;10.014;2023-07-09T14:19:19;33.40;17.40
38582;DHT22;24349;53.720;10.014;2023-07-09T14:21:46;33.50;23.50
38582;DHT22;24349;53.720;10.014;2023-07-09T14:24:33;33.60;21.90
38582;DHT22;24349;53.720;10.014;2023-07-09T14:26:58;33.60;16.60
38582;DHT22;24349;53.720;10.014;2023-07-09T14:29:24;33.70;21.00
38582;DHT22;24349;53.720;10.014;2023-07-09T14:31:51;33.40;20.00
38582;DHT22;24349;53.720;10.014;2023-07-09T14:34:29;33.30;18.10
38582;DHT22;24349;53.720;10.014;2023-07-09T14:36:57;33.40;21.10
38582;DHT22;24349;53.720;10.014;2023-07-09T14:39:23;33.20;16.80
38582;DHT22;24349;53.720;10.014;2023-07-09T14:41:49;33.30;17.10
38582;DHT22;24349;53.720;10.014;2023-07-09T14:46:48;33.10;18.50
38582;DHT22;24349;53.720;10.014;2023-07-09T14:49:15;33.20;17.60
38582;DHT22;24349;53.720;10.014;2023-07-09T14:51:41;33.10;15.90
38582;DHT22;24349;53.720;10.014;2023-07-09T14:54:21;33.20;18.10
38582;DHT22;24349;53.720;10.014;2023-07-09T14:56:48;33.10;19.10
38582;DHT22;24349;53.720;10.014;2023-07-09T14:59:14;33.20;19.00
38582;DHT22;24349;53.720;10.014;2023-07-09T15:01:40;33.40;18.00
38582;DHT22;24349;53.720;10.014;2023-07-09T15:06:52;33.50;17.70
38582;DHT22;24349;53.720;10.014;2023-07-09T15:09:24;33.60;17.60
38582;DHT22;24349;53.720;10.014;2023-07-09T15:11:55;33.80;16.70
38582;DHT22;24349;53.720;10.014;2023-07-09T15:14:21;33.70;18.80
38582;DHT22;24349;53.720;10.014;2023-07-09T15:16:48;33.90;14.80
38582;DHT22;24349;53.720;10.014;2023-07-09T15:19:19;33.90;13.80
38582;DHT22;24349;53.720;10.014;2023-07-09T15:21:46;33.60;11.60
38582;DHT22;24349;53.720;10.014;2023-07-09T15:24:33;33.50;11.60
38582;DHT22;24349;53.720;10.014;2023-07-09T15:26:59;33.60;13.80
38582;DHT22;24349;53.720;10.014;2023-07-09T15:29:27;33.70;15.40
38582;DHT22;24349;53.720;10.014;2023-07-09T15:31:52;33.80;13.90
38582;DHT22;24349;53.720;10.014;2023-07-09T15:34:18;33.50;10.90
38582;DHT22;24349;53.720;10.014;2023-07-09T15:36:51;33.30;8.10
38582;DHT22;24349;53.720;10.014;2023-07-09T15:39:18;33.10;8.90
38582;DHT22;24349;53.720;10.014;2023-07-09T15:41:44;33.10;13.70
38582;DHT22;24349;53.720;10.014;2023-07-09T15:44:14;33.10;10.70
38582;DHT22;24349;53.720;10.014;2023-07-09T15:46:44;33.00;10.70
38582;DHT22;24349;53.720;10.014;2023-07-09T15:49:11;32.90;9.30
38582;DHT22;24349;53.720;10.014;2023-07-09T15:51:38;32.70;9.40
38582;DHT22;24349;53.720;10.014;2023-07-09T15:54:18;32.50;17.30
38582;DHT22;24349;53.720;10.014;2023-07-09T15:56:45;32.40;10.00
38582;DHT22;24349;53.720;10.014;2023-07-09T15:59:25;32.00;9.10
38582;DHT22;24349;53.720;10.014;2023-07-09T16:01:52;32.00;10.60
38582;DHT22;24349;53.720;10.014;2023-07-09T16:04:17;32.00;11.60